sensor_id;sensor_type;location;lat;lon;timestamp;pressure;altitude;pressure_sealevel;temperature;humidity
55217;BME280;41086;46.736;15.666;2023-04-05T00:01:58;98928.97;;;-0.81;78.75
55217;BME280;41086;46.736;15.666;2023-04-05T00:04:26;98933.25;;;-0.79;78.37
55217;BME280;41086;46.736;15.666;2023-04-05T00:06:54;98928.13;;;-0.83;78.28
55217;BME280;41086;46.736;15.666;2023-04-05T00:09:23;98929.03;;;-0.87;78.59
55217;BME280;41086;46.736;15.666;2023-04-05T00:11:49;98933.50;;;-0.94;79.19
55217;BME280;41086;46.736;15.666;2023-04-05T00:14:16;98925.75;;;-0.97;78.92
55217;BME280;41086;46.736;15.666;2023-04-05T00:16:43;98931.06;;;-1.05;81.01
55217;BME280;41086;46.736;15.666;2023-04-05T00:19:10;98931.06;;;-1.05;80.53
55217;BME280;41086;46.736;15.666;2023-04-05T00:21:38;98932.78;;;-1.05;82.22
55217;BME280;41086;46.736;15.666;2023-04-05T00:24:06;98932.84;;;-1.10;84.82
55217;BME280;41086;46.736;15.666;2023-04-05T00:26:33;98925.00;;;-1.07;82.54
55217;BME280;41086;46.736;15.666;2023-04-05T00:29:01;98929.31;;;-1.06;82.01
55217;BME280;41086;46.736;15.666;2023-04-05T00:31:28;98928.66;;;-1.19;80.39
55217;BME280;41086;46.736;15.666;2023-04-05T00:33:56;98930.34;;;-1.16;78.40
55217;BME280;41086;46.736;15.666;2023-04-05T00:36:23;98921.75;;;-1.23;80.34
55217;BME280;41086;46.736;15.666;2023-04-05T00:38:50;98922.84;;;-1.39;85.53
55217;BME280;41086;46.736;15.666;2023-04-05T00:41:16;98926.25;;;-1.32;82.54
55217;BME280;41086;46.736;15.666;2023-04-05T00:43:43;98918.56;;;-1.42;88.76
55217;BME280;41086;46.736;15.666;2023-04-05T00:46:10;98912.53;;;-1.47;83.46
55217;BME280;41086;46.736;15.666;2023-04-05T00:48:37;98918.66;;;-1.49;85.18
55217;BME280;41086;46.736;15.666;2023-04-05T00:51:05;98918.66;;;-1.49;83.10
55217;BME280;41086;46.736;15.666;2023-04-05T00:53:35;98902.28;;;-1.58;84.21
55217;BME280;41086;46.736;15.666;2023-04-05T00:56:03;98912.78;;;-1.64;87.83
55217;BME280;41086;46.736;15.666;2023-04-05T00:58:30;98916.25;;;-1.65;83.94
55217;BME280;41086;46.736;15.666;2023-04-05T01:00:59;98911.06;;;-1.66;83.38
55217;BME280;41086;46.736;15.666;2023-04-05T01:03:28;98908.56;;;-1.72;82.00
55217;BME280;41086;46.736;15.666;2023-04-05T01:06:21;98918.09;;;-1.73;82.62
55217;BME280;41086;46.736;15.666;2023-04-05T01:11:57;98907.84;;;-1.84;83.17
55217;BME280;41086;46.736;15.666;2023-04-05T01:14:30;98912.22;;;-1.89;82.30
55217;BME280;41086;46.736;15.666;2023-04-05T01:17:03;98898.38;;;-1.89;82.85
55217;BME280;41086;46.736;15.666;2023-04-05T01:19:34;98913.97;;;-1.89;82.53
55217;BME280;41086;46.736;15.666;2023-04-05T01:31:55;98904.47;;;-1.92;89.48
55217;BME280;41086;46.736;15.666;2023-04-05T01:36:49;98902.06;;;-2.10;88.24
55217;BME280;41086;46.736;15.666;2023-04-05T01:39:23;98905.56;;;-2.13;86.78
55217;BME280;41086;46.736;15.666;2023-04-05T01:41:58;98908.22;;;-2.19;86.43
55217;BME280;41086;46.736;15.666;2023-04-05T01:44:26;98905.72;;;-2.28;91.10
55217;BME280;41086;46.736;15.666;2023-04-05T01:46:54;98903.06;;;-2.24;90.02
55217;BME280;41086;46.736;15.666;2023-04-05T01:49:21;98895.28;;;-2.24;92.97
55217;BME280;41086;46.736;15.666;2023-04-05T01:51:49;98905.63;;;-2.19;92.49
55217;BME280;41086;46.736;15.666;2023-04-05T01:54:16;98908.19;;;-2.17;91.21
55217;BME280;41086;46.736;15.666;2023-04-05T01:56:43;98904.78;;;-2.19;95.27
55217;BME280;41086;46.736;15.666;2023-04-05T01:59:10;98901.47;;;-2.37;99.72
55217;BME280;41086;46.736;15.666;2023-04-05T02:01:37;98904.91;;;-2.35;98.05
55217;BME280;41086;46.736;15.666;2023-04-05T02:04:04;98907.56;;;-2.39;96.60
55217;BME280;41086;46.736;15.666;2023-04-05T02:06:31;98903.22;;;-2.39;97.89
55217;BME280;41086;46.736;15.666;2023-04-05T02:09:00;98903.22;;;-2.39;94.55
55217;BME280;41086;46.736;15.666;2023-04-05T02:11:27;98907.59;;;-2.41;96.53
55217;BME280;41086;46.736;15.666;2023-04-05T02:13:57;98907.66;;;-2.49;99.73
55217;BME280;41086;46.736;15.666;2023-04-05T02:16:23;98904.16;;;-2.46;100.00
55217;BME280;41086;46.736;15.666;2023-04-05T02:18:54;98904.97;;;-2.39;98.06
55217;BME280;41086;46.736;15.666;2023-04-05T02:21:23;98917.13;;;-2.41;98.78
55217;BME280;41086;46.736;15.666;2023-04-05T02:23:52;98918.09;;;-2.55;100.00
55217;BME280;41086;46.736;15.666;2023-04-05T02:26:19;98913.75;;;-2.54;99.21
55217;BME280;41086;46.736;15.666;2023-04-05T02:28:46;98906.75;;;-2.48;100.00
55217;BME280;41086;46.736;15.666;2023-04-05T02:31:13;98904.91;;;-2.35;99.38
55217;BME280;41086;46.736;15.666;2023-04-05T02:33:41;98898.63;;;-2.12;93.05
55217;BME280;41086;46.736;15.666;2023-04-05T02:36:10;98908.03;;;-2.02;91.57
55217;BME280;41086;46.736;15.666;2023-04-05T02:38:37;98896.94;;;-2.18;95.27
55217;BME280;41086;46.736;15.666;2023-04-05T02:41:07;98906.59;;;-2.28;98.62
55217;BME280;41086;46.736;15.666;2023-04-05T02:43:37;98902.34;;;-2.38;100.00
55217;BME280;41086;46.736;15.666;2023-04-05T02:46:04;98908.59;;;-2.59;100.00
55217;BME280;41086;46.736;15.666;2023-04-05T02:48:35;98906.03;;;-2.62;100.00
55217;BME280;41086;46.736;15.666;2023-04-05T02:51:04;98905.16;;;-2.61;100.00
55217;BME280;41086;46.736;15.666;2023-04-05T02:53:30;98899.16;;;-2.68;100.00
55217;BME280;41086;46.736;15.666;2023-04-05T02:56:00;98904.44;;;-2.80;100.00
55217;BME280;41086;46.736;15.666;2023-04-05T02:58:29;98904.47;;;-2.81;100.00
55217;BME280;41086;46.736;15.666;2023-04-05T03:00:58;98902.72;;;-2.78;100.00
55217;BME280;41086;46.736;15.666;2023-04-05T03:03:30;98899.19;;;-2.72;100.00
55217;BME280;41086;46.736;15.666;2023-04-05T03:05:58;98898.41;;;-2.80;100.00
55217;BME280;41086;46.736;15.666;2023-04-05T03:08:42;98888.97;;;-2.89;100.00
55217;BME280;41086;46.736;15.666;2023-04-05T03:11:15;98898.53;;;-2.94;100.00
55217;BME280;41086;46.736;15.666;2023-04-05T03:13:46;98895.16;;;-3.05;100.00
55217;BME280;41086;46.736;15.666;2023-04-05T03:16:25;98896.06;;;-3.16;100.00
55217;BME280;41086;46.736;15.666;2023-04-05T03:18:54;98886.63;;;-3.24;100.00
55217;BME280;41086;46.736;15.666;2023-04-05T03:21:22;98890.13;;;-3.25;100.00
55217;BME280;41086;46.736;15.666;2023-04-05T03:23:58;98895.28;;;-3.22;100.00
55217;BME280;41086;46.736;15.666;2023-04-05T03:26:34;98897.91;;;-3.25;100.00
55217;BME280;41086;46.736;15.666;2023-04-05T03:29:02;98897.88;;;-3.27;100.00
55217;BME280;41086;46.736;15.666;2023-04-05T03:31:33;98896.19;;;-3.32;100.00
55217;BME280;41086;46.736;15.666;2023-04-05T03:34:04;98891.09;;;-3.48;100.00
55217;BME280;41086;46.736;15.666;2023-04-05T03:36:39;98889.31;;;-3.38;100.00
55217;BME280;41086;46.736;15.666;2023-04-05T03:39:31;98896.19;;;-3.28;100.00
55217;BME280;41086;46.736;15.666;2023-04-05T03:41:58;98900.53;;;-3.38;100.00
55217;BME280;41086;46.736;15.666;2023-04-05T03:44:25;98898.06;;;-3.54;100.00
55217;BME280;41086;46.736;15.666;2023-04-05T03:46:52;98899.81;;;-3.58;100.00
55217;BME280;41086;46.736;15.666;2023-04-05T03:49:21;98898.03;;;-3.51;100.00
55217;BME280;41086;46.736;15.666;2023-04-05T03:51:48;98902.31;;;-3.46;100.00
55217;BME280;41086;46.736;15.666;2023-04-05T03:54:17;98903.22;;;-3.51;100.00
55217;BME280;41086;46.736;15.666;2023-04-05T03:56:44;98898.09;;;-3.65;100.00
55217;BME280;41086;46.736;15.666;2023-04-05T03:59:14;98901.63;;;-3.77;100.00
55217;BME280;41086;46.736;15.666;2023-04-05T04:01:41;98904.22;;;-3.83;100.00
55217;BME280;41086;46.736;15.666;2023-04-05T04:04:10;98908.56;;;-3.91;100.00
55217;BME280;41086;46.736;15.666;2023-04-05T04:06:43;98907.75;;;-3.93;100.00
55217;BME280;41086;46.736;15.666;2023-04-05T04:09:12;98906.00;;;-3.99;100.00
55217;BME280;41086;46.736;15.666;2023-04-05T04:11:39;98917.22;;;-3.95;100.00
55217;BME280;41086;46.736;15.666;2023-04-05T04:14:07;98925.00;;;-3.97;100.00
55217;BME280;41086;46.736;15.666;2023-04-05T04:16:40;98914.66;;;-4.05;100.00
55217;BME280;41086;46.736;15.666;2023-04-05T04:19:19;98917.25;;;-4.06;100.00
55217;BME280;41086;46.736;15.666;2023-04-05T04:22:06;98913.84;;;-4.10;100.00
55217;BME280;41086;46.736;15.666;2023-04-05T04:24:54;98904.34;;;-4.18;100.00
55217;BME280;41086;46.736;15.666;2023-04-05T04:27:41;98913.81;;;-4.13;100.00
55217;BME280;41086;46.736;15.666;2023-04-05T04:30:18;98912.97;;;-4.15;100.00
55217;BME280;41086;46.736;15.666;2023-04-05T04:33:07;98917.28;;;-4.18;100.00
55217;BME280;41086;46.736;15.666;2023-04-05T04:35:42;98915.56;;;-4.12;100.00
55217;BME280;41086;46.736;15.666;2023-04-05T04:38:31;98917.28;;;-4.12;100.00
55217;BME280;41086;46.736;15.666;2023-04-05T04:41:10;98914.63;;;-3.92;100.00
55217;BME280;41086;46.736;15.666;2023-04-05T04:43:48;98918.06;;;-3.83;100.00
55217;BME280;41086;46.736;15.666;2023-04-05T04:46:29;98914.63;;;-3.89;100.00
55217;BME280;41086;46.736;15.666;2023-04-05T04:49:06;98921.44;;;-3.73;100.00
55217;BME280;41086;46.736;15.666;2023-04-05T04:51:33;98918.81;;;-3.61;100.00
55217;BME280;41086;46.736;15.666;2023-04-05T04:54:02;98928.31;;;-3.61;100.00
55217;BME280;41086;46.736;15.666;2023-04-05T04:56:29;98919.72;;;-3.68;100.00
55217;BME280;41086;46.736;15.666;2023-04-05T04:58:58;98918.84;;;-3.70;100.00
55217;BME280;41086;46.736;15.666;2023-04-05T05:01:25;98924.00;;;-3.67;100.00
55217;BME280;41086;46.736;15.666;2023-04-05T05:03:52;98916.22;;;-3.61;100.00
55217;BME280;41086;46.736;15.666;2023-04-05T05:06:32;98920.50;;;-3.57;100.00
55217;BME280;41086;46.736;15.666;2023-04-05T05:08:59;98930.84;;;-3.49;100.00
55217;BME280;41086;46.736;15.666;2023-04-05T05:11:28;98930.00;;;-3.49;100.00
55217;BME280;41086;46.736;15.666;2023-04-05T05:13:55;98931.69;;;-3.44;100.00
55217;BME280;41086;46.736;15.666;2023-04-05T05:16:24;98929.97;;;-3.42;100.00
55217;BME280;41086;46.736;15.666;2023-04-05T05:18:53;98928.19;;;-3.33;100.00
55217;BME280;41086;46.736;15.666;2023-04-05T05:21:23;98927.25;;;-3.22;100.00
55217;BME280;41086;46.736;15.666;2023-04-05T05:23:59;98934.94;;;-3.13;100.00
55217;BME280;41086;46.736;15.666;2023-04-05T05:26:26;98928.94;;;-3.16;100.00
55217;BME280;41086;46.736;15.666;2023-04-05T05:28:53;98933.19;;;-3.07;100.00
55217;BME280;41086;46.736;15.666;2023-04-05T05:31:20;98940.03;;;-2.97;100.00
55217;BME280;41086;46.736;15.666;2023-04-05T05:33:47;98934.84;;;-2.93;100.00
55217;BME280;41086;46.736;15.666;2023-04-05T05:36:16;98934.78;;;-2.86;100.00
55217;BME280;41086;46.736;15.666;2023-04-05T05:38:45;98935.59;;;-2.81;100.00
55217;BME280;41086;46.736;15.666;2023-04-05T05:41:13;98930.28;;;-2.66;100.00
55217;BME280;41086;46.736;15.666;2023-04-05T05:43:39;98944.06;;;-2.61;100.00
55217;BME280;41086;46.736;15.666;2023-04-05T05:46:06;98932.03;;;-2.65;100.00
55217;BME280;41086;46.736;15.666;2023-04-05T05:48:37;98943.16;;;-2.54;100.00
55217;BME280;41086;46.736;15.666;2023-04-05T05:51:04;98939.59;;;-2.40;100.00
55217;BME280;41086;46.736;15.666;2023-04-05T05:53:38;98946.47;;;-2.35;100.00
55217;BME280;41086;46.736;15.666;2023-04-05T05:56:06;98939.50;;;-2.30;100.00
55217;BME280;41086;46.736;15.666;2023-04-05T05:58:32;98946.34;;;-2.26;100.00
55217;BME280;41086;46.736;15.666;2023-04-05T06:00:59;98931.66;;;-2.27;100.00
55217;BME280;41086;46.736;15.666;2023-04-05T06:03:29;98945.44;;;-2.18;100.00
55217;BME280;41086;46.736;15.666;2023-04-05T06:05:57;98950.63;;;-2.18;100.00
55217;BME280;41086;46.736;15.666;2023-04-05T06:08:25;98943.66;;;-2.15;100.00
55217;BME280;41086;46.736;15.666;2023-04-05T06:10:55;98948.81;;;-2.10;100.00
55217;BME280;41086;46.736;15.666;2023-04-05T06:13:22;98946.19;;;-2.06;100.00
55217;BME280;41086;46.736;15.666;2023-04-05T06:15:49;98946.09;;;-2.01;100.00
55217;BME280;41086;46.736;15.666;2023-04-05T06:18:16;98956.47;;;-1.96;100.00
55217;BME280;41086;46.736;15.666;2023-04-05T06:20:43;98947.75;;;-1.91;100.00
55217;BME280;41086;46.736;15.666;2023-04-05T06:23:11;98951.06;;;-1.78;100.00
55217;BME280;41086;46.736;15.666;2023-04-05T06:25:38;98941.50;;;-1.73;100.00
55217;BME280;41086;46.736;15.666;2023-04-05T06:28:06;98943.03;;;-1.58;100.00
55217;BME280;41086;46.736;15.666;2023-04-05T06:30:33;98947.22;;;-1.46;100.00
55217;BME280;41086;46.736;15.666;2023-04-05T06:33:00;98955.78;;;-1.38;100.00
55217;BME280;41086;46.736;15.666;2023-04-05T06:35:27;98953.97;;;-1.33;100.00
55217;BME280;41086;46.736;15.666;2023-04-05T06:37:54;98955.56;;;-1.23;100.00
55217;BME280;41086;46.736;15.666;2023-04-05T06:40:21;98960.66;;;-1.14;94.94
55217;BME280;41086;46.736;15.666;2023-04-05T06:42:47;98961.16;;;-0.90;100.00
55217;BME280;41086;46.736;15.666;2023-04-05T06:45:20;98964.56;;;-0.83;92.19
55217;BME280;41086;46.736;15.666;2023-04-05T06:47:47;98958.63;;;-0.93;86.62
55217;BME280;41086;46.736;15.666;2023-04-05T06:50:14;98968.19;;;-0.95;86.10
55217;BME280;41086;46.736;15.666;2023-04-05T06:52:41;98968.91;;;-0.85;86.81
55217;BME280;41086;46.736;15.666;2023-04-05T06:55:08;98970.34;;;-0.66;91.17
55217;BME280;41086;46.736;15.666;2023-04-05T06:57:35;98968.59;;;-0.62;85.21
55217;BME280;41086;46.736;15.666;2023-04-05T07:00:02;98969.50;;;-0.65;84.40
55217;BME280;41086;46.736;15.666;2023-04-05T07:02:34;98976.91;;;-0.42;88.44
55217;BME280;41086;46.736;15.666;2023-04-05T07:05:02;98967.34;;;-0.41;83.44
55217;BME280;41086;46.736;15.666;2023-04-05T07:07:31;98954.81;;;-0.19;91.63
55217;BME280;41086;46.736;15.666;2023-04-05T07:09:58;98967.94;;;-0.24;86.44
55217;BME280;41086;46.736;15.666;2023-04-05T07:12:26;98968.03;;;-0.30;84.89
55217;BME280;41086;46.736;15.666;2023-04-05T07:14:52;98967.13;;;-0.26;84.03
55217;BME280;41086;46.736;15.666;2023-04-05T07:17:19;98955.19;;;0.09;87.99
55217;BME280;41086;46.736;15.666;2023-04-05T07:19:46;98952.88;;;-0.08;81.97
55217;BME280;41086;46.736;15.666;2023-04-05T07:22:12;98957.09;;;-0.01;81.82
55217;BME280;41086;46.736;15.666;2023-04-05T07:24:39;98947.97;;;0.23;83.09
55217;BME280;41086;46.736;15.666;2023-04-05T07:27:06;98950.50;;;0.26;79.22
55217;BME280;41086;46.736;15.666;2023-04-05T07:29:33;98951.16;;;0.37;77.83
55217;BME280;41086;46.736;15.666;2023-04-05T07:32:03;98949.31;;;0.44;77.27
55217;BME280;41086;46.736;15.666;2023-04-05T07:34:30;98956.63;;;0.67;75.73
55217;BME280;41086;46.736;15.666;2023-04-05T07:36:57;98954.78;;;0.74;77.25
55217;BME280;41086;46.736;15.666;2023-04-05T07:39:24;98957.00;;;0.91;75.47
55217;BME280;41086;46.736;15.666;2023-04-05T07:41:50;98957.03;;;1.28;76.07
55217;BME280;41086;46.736;15.666;2023-04-05T07:44:18;98955.84;;;1.41;76.97
55217;BME280;41086;46.736;15.666;2023-04-05T07:46:44;98955.84;;;1.41;75.13
55217;BME280;41086;46.736;15.666;2023-04-05T07:49:14;98955.03;;;1.39;75.24
55217;BME280;41086;46.736;15.666;2023-04-05T07:51:41;98956.44;;;2.19;75.65
55217;BME280;41086;46.736;15.666;2023-04-05T07:54:08;98950.94;;;2.61;68.45
55217;BME280;41086;46.736;15.666;2023-04-05T07:56:36;98956.06;;;2.94;65.74
55217;BME280;41086;46.736;15.666;2023-04-05T07:59:03;98947.31;;;2.65;68.45
55217;BME280;41086;46.736;15.666;2023-04-05T08:01:30;98953.09;;;2.14;73.08
55217;BME280;41086;46.736;15.666;2023-04-05T08:03:57;98943.19;;;1.94;68.63
55217;BME280;41086;46.736;15.666;2023-04-05T08:06:24;98944.66;;;1.70;69.55
55217;BME280;41086;46.736;15.666;2023-04-05T08:08:52;98942.06;;;2.03;62.29
55217;BME280;41086;46.736;15.666;2023-04-05T08:11:20;98944.88;;;1.95;58.94
55217;BME280;41086;46.736;15.666;2023-04-05T08:13:47;98936.81;;;2.36;59.44
55217;BME280;41086;46.736;15.666;2023-04-05T08:16:13;98931.81;;;2.58;59.60
55217;BME280;41086;46.736;15.666;2023-04-05T08:18:41;98937.84;;;2.91;55.12
55217;BME280;41086;46.736;15.666;2023-04-05T08:21:07;98941.66;;;3.37;53.48
55217;BME280;41086;46.736;15.666;2023-04-05T08:23:34;98930.56;;;3.29;55.01
55217;BME280;41086;46.736;15.666;2023-04-05T08:26:01;98938.84;;;3.15;52.62
55217;BME280;41086;46.736;15.666;2023-04-05T08:28:28;98929.72;;;3.28;54.80
55217;BME280;41086;46.736;15.666;2023-04-05T08:30:55;98931.06;;;2.84;53.92
55217;BME280;41086;46.736;15.666;2023-04-05T08:33:23;98930.56;;;3.01;53.16
55217;BME280;41086;46.736;15.666;2023-04-05T08:35:52;98922.38;;;2.83;55.45
55217;BME280;41086;46.736;15.666;2023-04-05T08:38:19;98931.44;;;3.01;52.72
55217;BME280;41086;46.736;15.666;2023-04-05T08:40:46;98919.56;;;3.18;53.19
55217;BME280;41086;46.736;15.666;2023-04-05T08:45:48;98917.38;;;4.09;51.65
55217;BME280;41086;46.736;15.666;2023-04-05T08:48:16;98918.34;;;4.55;49.85
55217;BME280;41086;46.736;15.666;2023-04-05T08:50:52;98917.88;;;5.34;43.69
55217;BME280;41086;46.736;15.666;2023-04-05T08:53:19;98922.09;;;5.81;42.31
55217;BME280;41086;46.736;15.666;2023-04-05T08:55:48;98924.22;;;5.73;40.47
55217;BME280;41086;46.736;15.666;2023-04-05T08:58:20;98910.72;;;6.03;41.76
55217;BME280;41086;46.736;15.666;2023-04-05T09:00:50;98909.19;;;6.57;42.86
55217;BME280;41086;46.736;15.666;2023-04-05T09:03:21;98911.59;;;6.80;40.19
55217;BME280;41086;46.736;15.666;2023-04-05T09:05:52;98904.03;;;6.54;38.45
55217;BME280;41086;46.736;15.666;2023-04-05T09:08:19;98904.63;;;6.60;38.86
55217;BME280;41086;46.736;15.666;2023-04-05T09:10:52;98898.41;;;6.61;37.04
55217;BME280;41086;46.736;15.666;2023-04-05T09:13:18;98890.47;;;6.24;39.10
55217;BME280;41086;46.736;15.666;2023-04-05T09:15:46;98886.94;;;6.25;38.73
55217;BME280;41086;46.736;15.666;2023-04-05T09:18:12;98888.28;;;5.07;39.90
55217;BME280;41086;46.736;15.666;2023-04-05T09:21:00;98899.44;;;5.99;45.09
55217;BME280;41086;46.736;15.666;2023-04-05T09:23:28;98894.78;;;6.06;39.29
55217;BME280;41086;46.736;15.666;2023-04-05T09:25:55;98887.38;;;6.53;37.50
55217;BME280;41086;46.736;15.666;2023-04-05T09:28:21;98890.69;;;7.14;36.09
55217;BME280;41086;46.736;15.666;2023-04-05T09:30:48;98870.78;;;5.91;37.04
55217;BME280;41086;46.736;15.666;2023-04-05T09:33:18;98875.09;;;6.14;39.81
55217;BME280;41086;46.736;15.666;2023-04-05T09:35:48;98870.66;;;6.35;40.29
55217;BME280;41086;46.736;15.666;2023-04-05T09:38:16;98882.22;;;6.71;37.44
55217;BME280;41086;46.736;15.666;2023-04-05T09:40:47;98872.34;;;7.12;36.94
55217;BME280;41086;46.736;15.666;2023-04-05T09:43:37;98863.84;;;7.05;38.89
55217;BME280;41086;46.736;15.666;2023-04-05T09:46:05;98870.38;;;6.98;38.44
55217;BME280;41086;46.736;15.666;2023-04-05T09:51:16;98869.34;;;7.20;36.54
55217;BME280;41086;46.736;15.666;2023-04-05T09:56:24;98861.22;;;7.42;38.14
55217;BME280;41086;46.736;15.666;2023-04-05T09:58:51;98863.09;;;7.74;34.89
55217;BME280;41086;46.736;15.666;2023-04-05T10:01:20;98848.44;;;7.69;33.76
55217;BME280;41086;46.736;15.666;2023-04-05T10:03:48;98864.28;;;7.32;36.01
55217;BME280;41086;46.736;15.666;2023-04-05T10:06:15;98862.13;;;8.10;35.79
55217;BME280;41086;46.736;15.666;2023-04-05T10:08:48;98854.00;;;8.31;37.14
55217;BME280;41086;46.736;15.666;2023-04-05T10:11:19;98845.16;;;7.64;36.67
55217;BME280;41086;46.736;15.666;2023-04-05T10:13:48;98844.75;;;8.22;34.40
55217;BME280;41086;46.736;15.666;2023-04-05T10:16:19;98849.56;;;8.80;31.46
55217;BME280;41086;46.736;15.666;2023-04-05T10:18:50;98843.75;;;8.74;34.20
55217;BME280;41086;46.736;15.666;2023-04-05T10:21:21;98839.47;;;8.22;35.33
55217;BME280;41086;46.736;15.666;2023-04-05T10:23:58;98830.44;;;9.23;33.71
55217;BME280;41086;46.736;15.666;2023-04-05T10:29:08;98833.34;;;7.19;33.31
55217;BME280;41086;46.736;15.666;2023-04-05T10:31:50;98824.16;;;6.15;35.19
55217;BME280;41086;46.736;15.666;2023-04-05T10:34:32;98816.53;;;7.39;37.08
55217;BME280;41086;46.736;15.666;2023-04-05T10:37:04;98816.16;;;8.14;36.66
55217;BME280;41086;46.736;15.666;2023-04-05T10:39:39;98809.91;;;9.12;34.08
55217;BME280;41086;46.736;15.666;2023-04-05T10:42:20;98811.56;;;9.73;34.33
55217;BME280;41086;46.736;15.666;2023-04-05T10:44:53;98817.13;;;10.28;33.76
55217;BME280;41086;46.736;15.666;2023-04-05T10:47:27;98806.72;;;10.39;33.58
55217;BME280;41086;46.736;15.666;2023-04-05T10:49:59;98802.25;;;10.11;32.97
55217;BME280;41086;46.736;15.666;2023-04-05T10:52:29;98805.00;;;10.52;32.45
55217;BME280;41086;46.736;15.666;2023-04-05T10:54:56;98795.13;;;10.69;33.24
55217;BME280;41086;46.736;15.666;2023-04-05T10:57:25;98807.28;;;10.85;32.18
55217;BME280;41086;46.736;15.666;2023-04-05T10:59:53;98795.19;;;8.27;32.14
55217;BME280;41086;46.736;15.666;2023-04-05T11:02:21;98777.03;;;6.85;33.64
55217;BME280;41086;46.736;15.666;2023-04-05T11:04:54;98786.84;;;7.18;38.80
55217;BME280;41086;46.736;15.666;2023-04-05T11:07:22;98783.59;;;8.47;35.19
55217;BME280;41086;46.736;15.666;2023-04-05T11:12:17;98784.09;;;10.33;34.64
55217;BME280;41086;46.736;15.666;2023-04-05T11:14:44;98769.25;;;10.86;31.52
55217;BME280;41086;46.736;15.666;2023-04-05T11:17:27;98771.41;;;10.53;33.48
55217;BME280;41086;46.736;15.666;2023-04-05T11:20:02;98763.75;;;10.34;30.06
55217;BME280;41086;46.736;15.666;2023-04-05T11:22:30;98771.81;;;10.18;31.18
55217;BME280;41086;46.736;15.666;2023-04-05T11:24:58;98768.00;;;8.58;33.87
55217;BME280;41086;46.736;15.666;2023-04-05T11:27:31;98762.78;;;9.63;34.34
55217;BME280;41086;46.736;15.666;2023-04-05T11:29:59;98758.75;;;10.43;30.74
55217;BME280;41086;46.736;15.666;2023-04-05T11:32:40;98751.72;;;11.11;31.75
55217;BME280;41086;46.736;15.666;2023-04-05T11:35:16;98760.41;;;11.91;30.38
55217;BME280;41086;46.736;15.666;2023-04-05T11:38:04;98748.72;;;11.94;31.34
55217;BME280;41086;46.736;15.666;2023-04-05T11:40:36;98757.00;;;11.76;29.98
55217;BME280;41086;46.736;15.666;2023-04-05T11:43:07;98751.81;;;12.01;28.74
55217;BME280;41086;46.736;15.666;2023-04-05T11:45:38;98743.88;;;11.22;29.84
55217;BME280;41086;46.736;15.666;2023-04-05T11:48:05;98741.06;;;10.71;33.10
55217;BME280;41086;46.736;15.666;2023-04-05T11:50:33;98749.72;;;10.87;32.88
55217;BME280;41086;46.736;15.666;2023-04-05T11:53:08;98746.94;;;11.16;28.67
55217;BME280;41086;46.736;15.666;2023-04-05T11:55:39;98748.78;;;10.47;29.90
55217;BME280;41086;46.736;15.666;2023-04-05T11:58:17;98736.88;;;9.40;31.13
55217;BME280;41086;46.736;15.666;2023-04-05T12:00:45;98728.63;;;9.00;33.13
55217;BME280;41086;46.736;15.666;2023-04-05T12:03:15;98720.66;;;8.85;36.84
55217;BME280;41086;46.736;15.666;2023-04-05T12:05:45;98725.63;;;8.12;33.13
55217;BME280;41086;46.736;15.666;2023-04-05T12:08:12;98718.13;;;8.20;35.54
55217;BME280;41086;46.736;15.666;2023-04-05T12:10:39;98722.16;;;9.64;37.23
55217;BME280;41086;46.736;15.666;2023-04-05T12:13:06;98712.53;;;9.92;34.51
55217;BME280;41086;46.736;15.666;2023-04-05T12:15:39;98716.00;;;10.90;33.31
55217;BME280;41086;46.736;15.666;2023-04-05T12:18:11;98713.78;;;10.42;36.25
55217;BME280;41086;46.736;15.666;2023-04-05T12:20:38;98708.63;;;11.07;32.46
55217;BME280;41086;46.736;15.666;2023-04-05T12:23:06;98715.03;;;11.30;30.67
55217;BME280;41086;46.736;15.666;2023-04-05T12:25:32;98709.47;;;10.68;29.21
55217;BME280;41086;46.736;15.666;2023-04-05T12:28:05;98704.44;;;10.91;32.40
55217;BME280;41086;46.736;15.666;2023-04-05T12:30:34;98697.59;;;10.74;30.54
55217;BME280;41086;46.736;15.666;2023-04-05T12:33:07;98705.09;;;11.07;29.82
55217;BME280;41086;46.736;15.666;2023-04-05T12:35:37;98697.88;;;11.62;33.11
55217;BME280;41086;46.736;15.666;2023-04-05T12:38:05;98713.44;;;10.19;30.18
55217;BME280;41086;46.736;15.666;2023-04-05T12:40:33;98697.25;;;10.38;30.67
55217;BME280;41086;46.736;15.666;2023-04-05T12:43:06;98695.78;;;10.74;28.44
55217;BME280;41086;46.736;15.666;2023-04-05T12:45:37;98700.19;;;11.41;32.93
55217;BME280;41086;46.736;15.666;2023-04-05T12:48:11;98691.50;;;11.90;31.87
55217;BME280;41086;46.736;15.666;2023-04-05T12:50:42;98689.44;;;12.06;30.91
55217;BME280;41086;46.736;15.666;2023-04-05T12:53:21;98686.06;;;12.41;30.99
55217;BME280;41086;46.736;15.666;2023-04-05T12:55:50;98686.03;;;12.17;31.03
55217;BME280;41086;46.736;15.666;2023-04-05T12:58:19;98684.34;;;12.16;30.79
55217;BME280;41086;46.736;15.666;2023-04-05T13:00:46;98679.91;;;12.40;30.86
55217;BME280;41086;46.736;15.666;2023-04-05T13:03:19;98678.91;;;11.15;29.71
55217;BME280;41086;46.736;15.666;2023-04-05T13:05:47;98679.56;;;12.08;33.49
55217;BME280;41086;46.736;15.666;2023-04-05T13:08:17;98675.78;;;11.87;29.28
55217;BME280;41086;46.736;15.666;2023-04-05T13:10:45;98672.56;;;12.68;27.74
55217;BME280;41086;46.736;15.666;2023-04-05T13:13:16;98669.22;;;13.24;26.48
55217;BME280;41086;46.736;15.666;2023-04-05T13:15:44;98653.88;;;10.67;29.67
55217;BME280;41086;46.736;15.666;2023-04-05T13:18:12;98670.88;;;11.93;32.08
55217;BME280;41086;46.736;15.666;2023-04-05T13:20:42;98662.19;;;12.52;30.22
55217;BME280;41086;46.736;15.666;2023-04-05T13:23:09;98662.50;;;12.96;31.45
55217;BME280;41086;46.736;15.666;2023-04-05T13:25:40;98656.09;;;12.63;28.07
55217;BME280;41086;46.736;15.666;2023-04-05T13:28:08;98645.19;;;12.90;28.28
55217;BME280;41086;46.736;15.666;2023-04-05T13:30:35;98649.84;;;13.11;27.65
55217;BME280;41086;46.736;15.666;2023-04-05T13:33:02;98648.53;;;13.63;28.63